sensor_id;sensor_type;location;lat;lon;timestamp;temperature;humidity
20856;DHT22;63058;49.424;8.420;2023-02-05T00:02:00;6.90;94.10
20856;DHT22;63058;49.424;8.420;2023-02-05T00:04:26;6.80;94.00
20856;DHT22;63058;49.424;8.420;2023-02-05T00:06:53;6.80;94.00
20856;DHT22;63058;49.424;8.420;2023-02-05T00:09:19;6.80;94.20
20856;DHT22;63058;49.424;8.420;2023-02-05T00:11:45;6.70;94.30
20856;DHT22;63058;49.424;8.420;2023-02-05T00:14:10;6.70;94.20
20856;DHT22;63058;49.424;8.420;2023-02-05T00:16:36;6.70;94.10
20856;DHT22;63058;49.424;8.420;2023-02-05T00:19:02;6.70;94.10
20856;DHT22;63058;49.424;8.420;2023-02-05T00:21:27;6.70;94.10
20856;DHT22;63058;49.424;8.420;2023-02-05T00:23:53;6.70;94.10
20856;DHT22;63058;49.424;8.420;2023-02-05T00:26:19;6.60;94.10
20856;DHT22;63058;49.424;8.420;2023-02-05T00:28:45;6.60;94.10
20856;DHT22;63058;49.424;8.420;2023-02-05T00:31:13;6.60;94.10
20856;DHT22;63058;49.424;8.420;2023-02-05T00:33:39;6.60;94.20
20856;DHT22;63058;49.424;8.420;2023-02-05T00:36:05;6.60;94.30
20856;DHT22;63058;49.424;8.420;2023-02-05T00:38:31;6.60;94.20
20856;DHT22;63058;49.424;8.420;2023-02-05T00:40:57;6.60;94.20
20856;DHT22;63058;49.424;8.420;2023-02-05T00:43:22;6.50;94.20
20856;DHT22;63058;49.424;8.420;2023-02-05T00:45:48;6.50;94.20
20856;DHT22;63058;49.424;8.420;2023-02-05T00:48:14;6.50;94.20
20856;DHT22;63058;49.424;8.420;2023-02-05T00:50:39;6.40;94.30
20856;DHT22;63058;49.424;8.420;2023-02-05T00:53:05;6.40;94.70
20856;DHT22;63058;49.424;8.420;2023-02-05T00:55:31;6.40;94.60
20856;DHT22;63058;49.424;8.420;2023-02-05T00:57:57;6.40;94.60
20856;DHT22;63058;49.424;8.420;2023-02-05T01:00:23;6.40;94.70
20856;DHT22;63058;49.424;8.420;2023-02-05T01:02:48;6.40;94.80
20856;DHT22;63058;49.424;8.420;2023-02-05T01:05:14;6.40;94.90
20856;DHT22;63058;49.424;8.420;2023-02-05T01:07:40;6.40;94.90
20856;DHT22;63058;49.424;8.420;2023-02-05T01:10:06;6.50;95.10
20856;DHT22;63058;49.424;8.420;2023-02-05T01:12:32;6.50;95.00
20856;DHT22;63058;49.424;8.420;2023-02-05T01:15:02;6.50;94.90
20856;DHT22;63058;49.424;8.420;2023-02-05T01:17:29;6.50;94.80
20856;DHT22;63058;49.424;8.420;2023-02-05T01:19:54;6.50;95.00
20856;DHT22;63058;49.424;8.420;2023-02-05T01:22:20;6.60;95.40
20856;DHT22;63058;49.424;8.420;2023-02-05T01:24:45;6.60;95.60
20856;DHT22;63058;49.424;8.420;2023-02-05T01:27:11;6.60;95.80
20856;DHT22;63058;49.424;8.420;2023-02-05T01:29:37;6.70;96.00
20856;DHT22;63058;49.424;8.420;2023-02-05T01:32:02;6.80;96.10
20856;DHT22;63058;49.424;8.420;2023-02-05T01:34:28;6.80;96.20
20856;DHT22;63058;49.424;8.420;2023-02-05T01:36:53;6.90;96.30
20856;DHT22;63058;49.424;8.420;2023-02-05T01:39:19;7.00;96.40
20856;DHT22;63058;49.424;8.420;2023-02-05T01:41:45;7.00;96.40
20856;DHT22;63058;49.424;8.420;2023-02-05T01:44:20;7.20;96.40
20856;DHT22;63058;49.424;8.420;2023-02-05T01:46:51;7.20;96.30
20856;DHT22;63058;49.424;8.420;2023-02-05T01:49:27;7.30;96.30
20856;DHT22;63058;49.424;8.420;2023-02-05T01:51:56;7.30;96.10
20856;DHT22;63058;49.424;8.420;2023-02-05T01:54:25;7.30;96.10
20856;DHT22;63058;49.424;8.420;2023-02-05T01:56:56;7.30;96.00
20856;DHT22;63058;49.424;8.420;2023-02-05T01:59:27;7.30;96.00
20856;DHT22;63058;49.424;8.420;2023-02-05T02:01:54;7.30;95.90
20856;DHT22;63058;49.424;8.420;2023-02-05T02:06:54;7.30;95.80
20856;DHT22;63058;49.424;8.420;2023-02-05T02:09:19;7.20;95.90
20856;DHT22;63058;49.424;8.420;2023-02-05T02:11:45;7.10;95.90
20856;DHT22;63058;49.424;8.420;2023-02-05T02:14:11;7.10;96.30
20856;DHT22;63058;49.424;8.420;2023-02-05T02:16:38;7.10;96.00
20856;DHT22;63058;49.424;8.420;2023-02-05T02:19:16;7.00;96.10
20856;DHT22;63058;49.424;8.420;2023-02-05T02:27:57;7.20;96.20
20856;DHT22;63058;49.424;8.420;2023-02-05T02:30:41;7.20;96.20
20856;DHT22;63058;49.424;8.420;2023-02-05T02:38:42;7.30;96.20
20856;DHT22;63058;49.424;8.420;2023-02-05T02:41:54;7.30;96.30
20856;DHT22;63058;49.424;8.420;2023-02-05T02:44:36;7.40;96.00
20856;DHT22;63058;49.424;8.420;2023-02-05T02:47:14;7.40;96.30
20856;DHT22;63058;49.424;8.420;2023-02-05T02:49:50;7.40;96.10
20856;DHT22;63058;49.424;8.420;2023-02-05T02:52:20;7.40;96.10
20856;DHT22;63058;49.424;8.420;2023-02-05T02:54:52;7.50;96.30
20856;DHT22;63058;49.424;8.420;2023-02-05T02:57:33;7.40;96.40
20856;DHT22;63058;49.424;8.420;2023-02-05T03:00:01;7.50;96.60
20856;DHT22;63058;49.424;8.420;2023-02-05T03:02:30;7.60;96.60
20856;DHT22;63058;49.424;8.420;2023-02-05T03:05:03;7.60;96.50
20856;DHT22;63058;49.424;8.420;2023-02-05T03:07:45;7.60;96.50
20856;DHT22;63058;49.424;8.420;2023-02-05T03:12:43;7.70;96.30
20856;DHT22;63058;49.424;8.420;2023-02-05T03:15:10;7.70;96.40
20856;DHT22;63058;49.424;8.420;2023-02-05T03:17:36;7.70;96.40
20856;DHT22;63058;49.424;8.420;2023-02-05T03:20:16;7.80;96.40
20856;DHT22;63058;49.424;8.420;2023-02-05T03:22:43;7.70;96.30
20856;DHT22;63058;49.424;8.420;2023-02-05T03:25:09;7.70;96.50
20856;DHT22;63058;49.424;8.420;2023-02-05T03:27:35;7.80;96.50
20856;DHT22;63058;49.424;8.420;2023-02-05T03:30:02;7.80;96.50
20856;DHT22;63058;49.424;8.420;2023-02-05T03:35:59;7.80;96.20
20856;DHT22;63058;49.424;8.420;2023-02-05T03:43:55;7.90;96.20
20856;DHT22;63058;49.424;8.420;2023-02-05T03:46:39;7.90;96.10
20856;DHT22;63058;49.424;8.420;2023-02-05T03:49:21;7.80;96.10
20856;DHT22;63058;49.424;8.420;2023-02-05T03:52:13;7.80;96.00
20856;DHT22;63058;49.424;8.420;2023-02-05T03:54:51;7.80;96.10
20856;DHT22;63058;49.424;8.420;2023-02-05T03:57:19;7.80;96.30
20856;DHT22;63058;49.424;8.420;2023-02-05T03:59:47;7.70;96.50
20856;DHT22;63058;49.424;8.420;2023-02-05T04:02:14;7.70;96.50
20856;DHT22;63058;49.424;8.420;2023-02-05T04:04:40;7.70;96.60
20856;DHT22;63058;49.424;8.420;2023-02-05T04:07:06;7.70;96.70
20856;DHT22;63058;49.424;8.420;2023-02-05T04:09:31;7.80;96.80
20856;DHT22;63058;49.424;8.420;2023-02-05T04:11:57;7.80;96.70
20856;DHT22;63058;49.424;8.420;2023-02-05T04:14:22;7.80;96.80
20856;DHT22;63058;49.424;8.420;2023-02-05T04:16:48;7.80;96.70
20856;DHT22;63058;49.424;8.420;2023-02-05T04:19:14;7.70;96.70
20856;DHT22;63058;49.424;8.420;2023-02-05T04:21:39;7.70;96.80
20856;DHT22;63058;49.424;8.420;2023-02-05T04:24:05;7.70;96.80
20856;DHT22;63058;49.424;8.420;2023-02-05T04:26:31;7.70;96.80
20856;DHT22;63058;49.424;8.420;2023-02-05T04:28:56;7.70;97.20
20856;DHT22;63058;49.424;8.420;2023-02-05T04:31:23;7.70;96.90
20856;DHT22;63058;49.424;8.420;2023-02-05T04:33:48;7.80;97.00
20856;DHT22;63058;49.424;8.420;2023-02-05T04:36:14;7.80;97.10
20856;DHT22;63058;49.424;8.420;2023-02-05T04:38:40;7.80;97.00
20856;DHT22;63058;49.424;8.420;2023-02-05T04:41:05;7.80;96.90
20856;DHT22;63058;49.424;8.420;2023-02-05T04:43:32;7.80;96.90
20856;DHT22;63058;49.424;8.420;2023-02-05T04:46:03;7.80;96.80
20856;DHT22;63058;49.424;8.420;2023-02-05T04:48:31;7.80;96.80
20856;DHT22;63058;49.424;8.420;2023-02-05T04:50:56;7.80;96.80
20856;DHT22;63058;49.424;8.420;2023-02-05T04:53:22;7.80;96.90
20856;DHT22;63058;49.424;8.420;2023-02-05T04:55:47;7.80;96.90
20856;DHT22;63058;49.424;8.420;2023-02-05T04:58:13;7.80;96.90
20856;DHT22;63058;49.424;8.420;2023-02-05T05:00:38;7.90;97.00
20856;DHT22;63058;49.424;8.420;2023-02-05T05:03:04;7.90;96.90
20856;DHT22;63058;49.424;8.420;2023-02-05T05:05:33;7.90;96.80
20856;DHT22;63058;49.424;8.420;2023-02-05T05:08:02;7.90;96.80
20856;DHT22;63058;49.424;8.420;2023-02-05T05:10:29;7.80;96.80
20856;DHT22;63058;49.424;8.420;2023-02-05T05:12:55;7.90;97.20
20856;DHT22;63058;49.424;8.420;2023-02-05T05:15:20;7.90;97.10
20856;DHT22;63058;49.424;8.420;2023-02-05T05:17:46;7.90;97.10
20856;DHT22;63058;49.424;8.420;2023-02-05T05:20:12;7.90;97.10
20856;DHT22;63058;49.424;8.420;2023-02-05T05:22:37;7.90;97.10
20856;DHT22;63058;49.424;8.420;2023-02-05T05:25:03;8.00;97.10
20856;DHT22;63058;49.424;8.420;2023-02-05T05:27:28;8.00;97.10
20856;DHT22;63058;49.424;8.420;2023-02-05T05:29:54;8.00;97.00
20856;DHT22;63058;49.424;8.420;2023-02-05T05:32:19;8.10;97.00
20856;DHT22;63058;49.424;8.420;2023-02-05T05:34:45;8.10;97.00
20856;DHT22;63058;49.424;8.420;2023-02-05T05:37:13;8.10;96.90
20856;DHT22;63058;49.424;8.420;2023-02-05T05:39:38;8.00;96.90
20856;DHT22;63058;49.424;8.420;2023-02-05T05:42:22;8.10;96.80
20856;DHT22;63058;49.424;8.420;2023-02-05T05:45:07;8.10;96.80
20856;DHT22;63058;49.424;8.420;2023-02-05T05:47:33;8.10;96.80
20856;DHT22;63058;49.424;8.420;2023-02-05T05:49:58;8.10;96.80
20856;DHT22;63058;49.424;8.420;2023-02-05T05:52:24;8.10;96.70
20856;DHT22;63058;49.424;8.420;2023-02-05T05:54:49;8.10;96.70
20856;DHT22;63058;49.424;8.420;2023-02-05T05:57:17;8.10;96.80
20856;DHT22;63058;49.424;8.420;2023-02-05T05:59:43;8.10;96.80
20856;DHT22;63058;49.424;8.420;2023-02-05T06:02:09;8.10;96.80
20856;DHT22;63058;49.424;8.420;2023-02-05T06:04:36;8.10;96.80
20856;DHT22;63058;49.424;8.420;2023-02-05T06:07:02;8.10;96.80
20856;DHT22;63058;49.424;8.420;2023-02-05T06:09:28;8.10;96.80
20856;DHT22;63058;49.424;8.420;2023-02-05T06:11:53;8.10;96.80
20856;DHT22;63058;49.424;8.420;2023-02-05T06:14:19;8.20;96.80
20856;DHT22;63058;49.424;8.420;2023-02-05T06:16:44;8.20;96.70
20856;DHT22;63058;49.424;8.420;2023-02-05T06:19:10;8.20;96.70
20856;DHT22;63058;49.424;8.420;2023-02-05T06:21:35;8.10;96.80
20856;DHT22;63058;49.424;8.420;2023-02-05T06:24:01;8.10;96.90
20856;DHT22;63058;49.424;8.420;2023-02-05T06:26:27;8.10;97.00
20856;DHT22;63058;49.424;8.420;2023-02-05T06:28:52;8.10;97.10
20856;DHT22;63058;49.424;8.420;2023-02-05T06:31:22;8.10;97.20
20856;DHT22;63058;49.424;8.420;2023-02-05T06:33:48;8.10;97.20
20856;DHT22;63058;49.424;8.420;2023-02-05T06:36:13;8.10;97.30
20856;DHT22;63058;49.424;8.420;2023-02-05T06:38:39;8.10;97.50
20856;DHT22;63058;49.424;8.420;2023-02-05T06:41:04;8.00;97.50
20856;DHT22;63058;49.424;8.420;2023-02-05T06:43:30;8.00;97.60
20856;DHT22;63058;49.424;8.420;2023-02-05T06:45:58;8.00;97.60
20856;DHT22;63058;49.424;8.420;2023-02-05T06:48:29;8.00;97.60
20856;DHT22;63058;49.424;8.420;2023-02-05T06:50:55;8.00;97.70
20856;DHT22;63058;49.424;8.420;2023-02-05T06:53:20;8.00;97.80
20856;DHT22;63058;49.424;8.420;2023-02-05T06:55:46;8.00;97.90
20856;DHT22;63058;49.424;8.420;2023-02-05T06:58:12;7.90;97.90
20856;DHT22;63058;49.424;8.420;2023-02-05T07:00:37;7.90;98.00
20856;DHT22;63058;49.424;8.420;2023-02-05T07:03:05;7.90;98.10
20856;DHT22;63058;49.424;8.420;2023-02-05T07:05:32;7.90;98.10
20856;DHT22;63058;49.424;8.420;2023-02-05T07:07:58;7.90;98.20
20856;DHT22;63058;49.424;8.420;2023-02-05T07:10:24;7.80;98.30
20856;DHT22;63058;49.424;8.420;2023-02-05T07:12:50;7.80;98.30
20856;DHT22;63058;49.424;8.420;2023-02-05T07:15:16;7.80;98.40
20856;DHT22;63058;49.424;8.420;2023-02-05T07:17:42;7.80;98.50
20856;DHT22;63058;49.424;8.420;2023-02-05T07:20:07;7.80;98.90
20856;DHT22;63058;49.424;8.420;2023-02-05T07:22:33;7.70;98.60
20856;DHT22;63058;49.424;8.420;2023-02-05T07:25:01;7.80;98.70
20856;DHT22;63058;49.424;8.420;2023-02-05T07:27:27;7.70;98.70
20856;DHT22;63058;49.424;8.420;2023-02-05T07:29:53;7.70;98.80
20856;DHT22;63058;49.424;8.420;2023-02-05T07:32:18;7.70;98.90
20856;DHT22;63058;49.424;8.420;2023-02-05T07:34:44;7.70;99.00
20856;DHT22;63058;49.424;8.420;2023-02-05T07:37:11;7.70;99.00
20856;DHT22;63058;49.424;8.420;2023-02-05T07:39:37;7.70;99.10
20856;DHT22;63058;49.424;8.420;2023-02-05T07:42:03;7.70;99.20
20856;DHT22;63058;49.424;8.420;2023-02-05T07:44:28;7.70;99.30
20856;DHT22;63058;49.424;8.420;2023-02-05T07:46:54;7.70;99.30
20856;DHT22;63058;49.424;8.420;2023-02-05T07:49:20;7.70;99.30
20856;DHT22;63058;49.424;8.420;2023-02-05T07:51:50;7.70;99.40
20856;DHT22;63058;49.424;8.420;2023-02-05T07:54:15;7.70;99.30
20856;DHT22;63058;49.424;8.420;2023-02-05T07:56:41;7.70;99.40
20856;DHT22;63058;49.424;8.420;2023-02-05T07:59:07;7.70;99.50
20856;DHT22;63058;49.424;8.420;2023-02-05T08:01:33;7.70;99.50
20856;DHT22;63058;49.424;8.420;2023-02-05T08:03:59;7.70;99.50
20856;DHT22;63058;49.424;8.420;2023-02-05T08:06:27;7.70;99.60
20856;DHT22;63058;49.424;8.420;2023-02-05T08:08:53;7.70;99.70
20856;DHT22;63058;49.424;8.420;2023-02-05T08:11:20;7.70;99.70
20856;DHT22;63058;49.424;8.420;2023-02-05T08:13:46;7.70;99.80
20856;DHT22;63058;49.424;8.420;2023-02-05T08:16:13;7.70;99.90
20856;DHT22;63058;49.424;8.420;2023-02-05T08:18:40;7.70;99.90
20856;DHT22;63058;49.424;8.420;2023-02-05T08:21:05;7.80;99.90
20856;DHT22;63058;49.424;8.420;2023-02-05T08:23:34;7.70;99.90
20856;DHT22;63058;49.424;8.420;2023-02-05T08:26:00;7.70;99.90
20856;DHT22;63058;49.424;8.420;2023-02-05T08:28:26;7.70;99.90
20856;DHT22;63058;49.424;8.420;2023-02-05T08:30:53;7.80;99.90
20856;DHT22;63058;49.424;8.420;2023-02-05T08:33:18;7.70;99.90
20856;DHT22;63058;49.424;8.420;2023-02-05T08:35:45;7.70;99.90
20856;DHT22;63058;49.424;8.420;2023-02-05T08:38:10;7.70;99.90
20856;DHT22;63058;49.424;8.420;2023-02-05T08:40:36;7.70;99.90
20856;DHT22;63058;49.424;8.420;2023-02-05T08:43:02;7.70;99.90
20856;DHT22;63058;49.424;8.420;2023-02-05T08:45:28;7.60;99.90
20856;DHT22;63058;49.424;8.420;2023-02-05T08:47:54;7.60;99.90
20856;DHT22;63058;49.424;8.420;2023-02-05T08:50:20;7.60;99.90
20856;DHT22;63058;49.424;8.420;2023-02-05T08:52:46;7.60;99.90
20856;DHT22;63058;49.424;8.420;2023-02-05T08:55:12;7.70;99.90
20856;DHT22;63058;49.424;8.420;2023-02-05T08:57:37;7.70;99.90
20856;DHT22;63058;49.424;8.420;2023-02-05T09:00:04;7.70;99.90
20856;DHT22;63058;49.424;8.420;2023-02-05T09:02:29;7.80;99.90
20856;DHT22;63058;49.424;8.420;2023-02-05T09:04:55;7.80;99.90
20856;DHT22;63058;49.424;8.420;2023-02-05T09:07:21;7.80;99.90
20856;DHT22;63058;49.424;8.420;2023-02-05T09:09:46;7.80;99.90
20856;DHT22;63058;49.424;8.420;2023-02-05T09:12:12;7.80;99.90
20856;DHT22;63058;49.424;8.420;2023-02-05T09:14:38;7.80;99.90
20856;DHT22;63058;49.424;8.420;2023-02-05T09:17:08;7.80;99.90
20856;DHT22;63058;49.424;8.420;2023-02-05T09:19:36;7.90;99.90
20856;DHT22;63058;49.424;8.420;2023-02-05T09:22:02;7.90;99.90
20856;DHT22;63058;49.424;8.420;2023-02-05T09:24:28;7.90;99.90
20856;DHT22;63058;49.424;8.420;2023-02-05T09:26:54;7.90;99.90
20856;DHT22;63058;49.424;8.420;2023-02-05T09:29:19;7.90;99.90
20856;DHT22;63058;49.424;8.420;2023-02-05T09:31:45;8.00;99.90
20856;DHT22;63058;49.424;8.420;2023-02-05T09:34:11;8.00;99.90
20856;DHT22;63058;49.424;8.420;2023-02-05T09:36:36;8.00;99.90
20856;DHT22;63058;49.424;8.420;2023-02-05T09:39:02;8.10;99.90
20856;DHT22;63058;49.424;8.420;2023-02-05T09:41:33;8.10;99.90
20856;DHT22;63058;49.424;8.420;2023-02-05T09:49:57;8.20;99.90
20856;DHT22;63058;49.424;8.420;2023-02-05T09:52:31;8.20;99.90
20856;DHT22;63058;49.424;8.420;2023-02-05T09:55:02;8.20;99.90
20856;DHT22;63058;49.424;8.420;2023-02-05T09:57:37;8.20;99.90
20856;DHT22;63058;49.424;8.420;2023-02-05T10:00:29;8.10;99.90
20856;DHT22;63058;49.424;8.420;2023-02-05T10:03:12;8.10;99.90
20856;DHT22;63058;49.424;8.420;2023-02-05T10:10:52;8.10;99.90
20856;DHT22;63058;49.424;8.420;2023-02-05T10:19:18;8.10;99.90
20856;DHT22;63058;49.424;8.420;2023-02-05T10:22:15;8.10;99.90
20856;DHT22;63058;49.424;8.420;2023-02-05T10:30:50;8.00;99.90
20856;DHT22;63058;49.424;8.420;2023-02-05T10:33:38;8.00;99.90
20856;DHT22;63058;49.424;8.420;2023-02-05T10:36:05;8.00;99.90
20856;DHT22;63058;49.424;8.420;2023-02-05T10:38:40;8.00;99.90
20856;DHT22;63058;49.424;8.420;2023-02-05T10:41:35;8.00;99.90
20856;DHT22;63058;49.424;8.420;2023-02-05T10:44:11;8.00;99.90
20856;DHT22;63058;49.424;8.420;2023-02-05T10:46:40;8.00;99.90
20856;DHT22;63058;49.424;8.420;2023-02-05T10:49:19;8.00;99.90
20856;DHT22;63058;49.424;8.420;2023-02-05T10:51:46;8.00;99.90
20856;DHT22;63058;49.424;8.420;2023-02-05T10:54:26;8.10;99.90
20856;DHT22;63058;49.424;8.420;2023-02-05T10:56:52;8.10;99.90
20856;DHT22;63058;49.424;8.420;2023-02-05T10:59:21;8.10;99.90
20856;DHT22;63058;49.424;8.420;2023-02-05T11:01:48;8.10;99.90
20856;DHT22;63058;49.424;8.420;2023-02-05T11:04:18;8.10;99.90
20856;DHT22;63058;49.424;8.420;2023-02-05T11:06:50;8.10;99.90
20856;DHT22;63058;49.424;8.420;2023-02-05T11:11:53;8.20;99.90
20856;DHT22;63058;49.424;8.420;2023-02-05T11:14:40;8.20;99.90
20856;DHT22;63058;49.424;8.420;2023-02-05T11:17:22;8.20;99.90
20856;DHT22;63058;49.424;8.420;2023-02-05T11:20:07;8.20;99.90
20856;DHT22;63058;49.424;8.420;2023-02-05T11:22:45;8.20;99.90
20856;DHT22;63058;49.424;8.420;2023-02-05T11:25:16;8.20;99.90
20856;DHT22;63058;49.424;8.420;2023-02-05T11:27:52;8.20;99.90
20856;DHT22;63058;49.424;8.420;2023-02-05T11:30:29;8.20;99.90
20856;DHT22;63058;49.424;8.420;2023-02-05T11:35:59;8.20;99.90
20856;DHT22;63058;49.424;8.420;2023-02-05T11:38:51;8.20;99.90
20856;DHT22;63058;49.424;8.420;2023-02-05T11:41:35;8.20;99.90
20856;DHT22;63058;49.424;8.420;2023-02-05T11:44:19;8.30;99.90
20856;DHT22;63058;49.424;8.420;2023-02-05T11:46:46;8.30;99.90
20856;DHT22;63058;49.424;8.420;2023-02-05T11:49:20;8.30;99.90
20856;DHT22;63058;49.424;8.420;2023-02-05T11:51:49;8.40;99.90
20856;DHT22;63058;49.424;8.420;2023-02-05T11:54:26;8.40;99.90
20856;DHT22;63058;49.424;8.420;2023-02-05T11:56:59;8.40;99.90
20856;DHT22;63058;49.424;8.420;2023-02-05T11:59:26;8.40;99.90
20856;DHT22;63058;49.424;8.420;2023-02-05T12:01:51;8.40;99.90
20856;DHT22;63058;49.424;8.420;2023-02-05T12:04:19;8.40;99.90
20856;DHT22;63058;49.424;8.420;2023-02-05T12:06:51;8.40;99.90
20856;DHT22;63058;49.424;8.420;2023-02-05T12:09:22;8.40;99.90
20856;DHT22;63058;49.424;8.420;2023-02-05T12:15:02;8.50;99.90
20856;DHT22;63058;49.424;8.420;2023-02-05T12:17:56;8.50;99.90
20856;DHT22;63058;49.424;8.420;2023-02-05T12:23:20;8.50;99.90
20856;DHT22;63058;49.424;8.420;2023-02-05T12:28:50;8.50;99.90
20856;DHT22;63058;49.424;8.420;2023-02-05T12:34:27;8.50;99.90
20856;DHT22;63058;49.424;8.420;2023-02-05T12:37:31;8.50;99.90
20856;DHT22;63058;49.424;8.420;2023-02-05T12:43:05;8.50;99.90
20856;DHT22;63058;49.424;8.420;2023-02-05T12:48:47;8.60;99.90
20856;DHT22;63058;49.424;8.420;2023-02-05T12:51:36;8.60;99.90
20856;DHT22;63058;49.424;8.420;2023-02-05T12:57:03;8.60;99.90
20856;DHT22;63058;49.424;8.420;2023-02-05T12:59:43;8.70;99.90
20856;DHT22;63058;49.424;8.420;2023-02-05T13:02:35;8.60;99.90
20856;DHT22;63058;49.424;8.420;2023-02-05T13:05:36;8.70;99.90
20856;DHT22;63058;49.424;8.420;2023-02-05T13:08:14;8.60;99.90
20856;DHT22;63058;49.424;8.420;2023-02-05T13:10:54;8.60;99.90
20856;DHT22;63058;49.424;8.420;2023-02-05T13:13:35;8.60;99.90
20856;DHT22;63058;49.424;8.420;2023-02-05T13:16:08;8.60;99.90
20856;DHT22;63058;49.424;8.420;2023-02-05T13:18:43;8.60;99.90
20856;DHT22;63058;49.424;8.420;2023-02-05T13:21:15;8.60;99.90
20856;DHT22;63058;49.424;8.420;2023-02-05T13:24:24;8.60;99.90
20856;DHT22;63058;49.424;8.420;2023-02-05T13:27:21;8.60;99.90
20856;DHT22;63058;49.424;8.420;2023-02-05T13:30:11;8.60;99.90
20856;DHT22;63058;49.424;8.420;2023-02-05T13:32:40;8.60;99.90
20856;DHT22;63058;49.424;8.420;2023-02-05T13:35:07;8.60;99.90
20856;DHT22;63058;49.424;8.420;2023-02-05T13:38:08;8.60;99.90
20856;DHT22;63058;49.424;8.420;2023-02-05T13:40:44;8.60;99.90
20856;DHT22;63058;49.424;8.420;2023-02-05T13:43:25;8.70;99.90
20856;DHT22;63058;49.424;8.420;2023-02-05T13:58:50;8.80;99.90
20856;DHT22;63058;49.424;8.420;2023-02-05T14:01:29;8.80;99.90
20856;DHT22;63058;49.424;8.420;2023-02-05T14:04:01;8.80;99.90
20856;DHT22;63058;49.424;8.420;2023-02-05T14:06:34;8.80;99.90
20856;DHT22;63058;49.424;8.420;2023-02-05T14:09:41;8.80;99.90
20856;DHT22;63058;49.424;8.420;2023-02-05T14:12:21;8.90;99.90
20856;DHT22;63058;49.424;8.420;2023-02-05T14:30:54;8.80;99.90
20856;DHT22;63058;49.424;8.420;2023-02-05T14:33:37;8.80;99.90
20856;DHT22;63058;49.424;8.420;2023-02-05T14:38:43;8.80;99.90
20856;DHT22;63058;49.424;8.420;2023-02-05T14:41:22;8.90;99.90
20856;DHT22;63058;49.424;8.420;2023-02-05T14:44:01;8.80;99.90
20856;DHT22;63058;49.424;8.420;2023-02-05T14:46:52;8.80;99.90
20856;DHT22;63058;49.424;8.420;2023-02-05T14:49:27;8.80;99.90
20856;DHT22;63058;49.424;8.420;2023-02-05T14:52:05;8.80;99.90
20856;DHT22;63058;49.424;8.420;2023-02-05T14:54:41;8.80;99.90
20856;DHT22;63058;49.424;8.420;2023-02-05T14:57:09;8.70;99.90
20856;DHT22;63058;49.424;8.420;2023-02-05T14:59:54;8.70;99.90
20856;DHT22;63058;49.424;8.420;2023-02-05T15:02:45;8.70;99.90
20856;DHT22;63058;49.424;8.420;2023-02-05T15:07:51;8.70;99.90
20856;DHT22;63058;49.424;8.420;2023-02-05T15:10:23;8.80;99.90
20856;DHT22;63058;49.424;8.420;2023-02-05T15:13:07;8.70;99.90
20856;DHT22;63058;49.424;8.420;2023-02-05T15:15:35;8.70;99.90
20856;DHT22;63058;49.424;8.420;2023-02-05T15:18:14;8.80;99.90
20856;DHT22;63058;49.424;8.420;2023-02-05T15:20:45;8.80;99.90
20856;DHT22;63058;49.424;8.420;2023-02-05T15:23:50;8.80;99.90
20856;DHT22;63058;49.424;8.420;2023-02-05T15:26:26;8.80;99.90
20856;DHT22;63058;49.424;8.420;2023-02-05T15:29:05;8.80;99.90
20856;DHT22;63058;49.424;8.420;2023-02-05T15:31:40;8.80;99.90
20856;DHT22;63058;49.424;8.420;2023-02-05T15:34:29;8.80;99.90
20856;DHT22;63058;49.424;8.420;2023-02-05T15:39:36;8.70;99.90
20856;DHT22;63058;49.424;8.420;2023-02-05T15:42:05;8.70;99.90
20856;DHT22;63058;49.424;8.420;2023-02-05T15:44:33;8.70;99.90
20856;DHT22;63058;49.424;8.420;2023-02-05T15:47:02;8.70;99.90
20856;DHT22;63058;49.424;8.420;2023-02-05T15:49:34;8.60;99.90
20856;DHT22;63058;49.424;8.420;2023-02-05T15:52:01;8.70;99.90
20856;DHT22;63058;49.424;8.420;2023-02-05T15:54:27;8.60;99.90
20856;DHT22;63058;49.424;8.420;2023-02-05T15:56:55;8.60;99.90
20856;DHT22;63058;49.424;8.420;2023-02-05T15:59:26;8.60;99.90
20856;DHT22;63058;49.424;8.420;2023-02-05T16:02:00;8.60;99.90
20856;DHT22;63058;49.424;8.420;2023-02-05T16:04:29;8.50;99.90
20856;DHT22;63058;49.424;8.420;2023-02-05T16:06:55;8.50;99.90
20856;DHT22;63058;49.424;8.420;2023-02-05T16:09:22;8.50;99.90
20856;DHT22;63058;49.424;8.420;2023-02-05T16:11:49;8.50;99.90
20856;DHT22;63058;49.424;8.420;2023-02-05T16:14:20;8.50;99.90
20856;DHT22;63058;49.424;8.420;2023-02-05T16:19:28;8.40;99.90
20856;DHT22;63058;49.424;8.420;2023-02-05T16:22:00;8.40;99.90
20856;DHT22;63058;49.424;8.420;2023-02-05T16:24:37;8.40;99.90
20856;DHT22;63058;49.424;8.420;2023-02-05T16:27:15;8.40;99.90
20856;DHT22;63058;49.424;8.420;2023-02-05T16:29:51;8.40;99.90
20856;DHT22;63058;49.424;8.420;2023-02-05T16:32:32;8.40;99.90
20856;DHT22;63058;49.424;8.420;2023-02-05T16:35:01;8.40;99.90
20856;DHT22;63058;49.424;8.420;2023-02-05T16:37:29;8.40;99.90
20856;DHT22;63058;49.424;8.420;2023-02-05T16:39:57;8.40;99.90
20856;DHT22;63058;49.424;8.420;2023-02-05T16:42:37;8.40;99.90
20856;DHT22;63058;49.424;8.420;2023-02-05T16:47:35;8.40;99.90
20856;DHT22;63058;49.424;8.420;2023-02-05T16:52:56;8.30;99.90
20856;DHT22;63058;49.424;8.420;2023-02-05T16:57:53;8.30;99.90
20856;DHT22;63058;49.424;8.420;2023-02-05T17:00:26;8.30;99.90
20856;DHT22;63058;49.424;8.420;2023-02-05T17:03:05;8.30;99.90
20856;DHT22;63058;49.424;8.420;2023-02-05T17:05:33;8.30;99.90
20856;DHT22;63058;49.424;8.420;2023-02-05T17:08:07;8.30;99.90
20856;DHT22;63058;49.424;8.420;2023-02-05T17:10:51;8.30;99.90
20856;DHT22;63058;49.424;8.420;2023-02-05T17:13:43;8.30;99.90
20856;DHT22;63058;49.424;8.420;2023-02-05T17:18:56;8.30;99.90
20856;DHT22;63058;49.424;8.420;2023-02-05T17:21:25;8.30;99.90
20856;DHT22;63058;49.424;8.420;2023-02-05T17:23:52;8.30;99.90
20856;DHT22;63058;49.424;8.420;2023-02-05T17:26:19;8.30;99.90
20856;DHT22;63058;49.424;8.420;2023-02-05T17:28:48;8.30;99.90
20856;DHT22;63058;49.424;8.420;2023-02-05T17:31:15;8.30;99.90
20856;DHT22;63058;49.424;8.420;2023-02-05T17:33:43;8.30;99.90
20856;DHT22;63058;49.424;8.420;2023-02-05T17:36:14;8.30;99.90
20856;DHT22;63058;49.424;8.420;2023-02-05T17:38:40;8.30;99.90
20856;DHT22;63058;49.424;8.420;2023-02-05T17:41:19;8.30;99.90
20856;DHT22;63058;49.424;8.420;2023-02-05T17:44:04;8.30;99.90
20856;DHT22;63058;49.424;8.420;2023-02-05T17:46:31;8.30;99.90
20856;DHT22;63058;49.424;8.420;2023-02-05T17:48:56;8.30;99.90
20856;DHT22;63058;49.424;8.420;2023-02-05T17:51:23;8.20;99.90
20856;DHT22;63058;49.424;8.420;2023-02-05T17:53:49;8.20;99.90
20856;DHT22;63058;49.424;8.420;2023-02-05T17:56:15;8.30;99.90
20856;DHT22;63058;49.424;8.420;2023-02-05T17:58:43;8.30;99.90
20856;DHT22;63058;49.424;8.420;2023-02-05T18:01:09;8.30;99.90
20856;DHT22;63058;49.424;8.420;2023-02-05T18:03:36;8.30;99.90
20856;DHT22;63058;49.424;8.420;2023-02-05T18:06:02;8.30;99.90
20856;DHT22;63058;49.424;8.420;2023-02-05T18:08:28;8.30;99.90
20856;DHT22;63058;49.424;8.420;2023-02-05T18:10:54;8.30;99.90
20856;DHT22;63058;49.424;8.420;2023-02-05T18:13:20;8.30;99.90